sensor_id;sensor_type;location;lat;lon;timestamp;temperature;humidity
76537;DHT22;65381;51.254;15.592;2023-02-02T00:01:38;3.30;88.50
76537;DHT22;65381;51.254;15.592;2023-02-02T00:04:07;3.30;88.60
76537;DHT22;65381;51.254;15.592;2023-02-02T00:06:36;3.30;88.50
76537;DHT22;65381;51.254;15.592;2023-02-02T00:09:03;3.20;88.30
76537;DHT22;65381;51.254;15.592;2023-02-02T00:11:31;3.10;88.30
76537;DHT22;65381;51.254;15.592;2023-02-02T00:13:59;3.10;88.40
76537;DHT22;65381;51.254;15.592;2023-02-02T00:19:00;3.10;88.40
76537;DHT22;65381;51.254;15.592;2023-02-02T00:21:28;3.10;88.30
76537;DHT22;65381;51.254;15.592;2023-02-02T00:23:56;3.10;88.40
76537;DHT22;65381;51.254;15.592;2023-02-02T00:26:24;3.20;88.40
76537;DHT22;65381;51.254;15.592;2023-02-02T00:28:52;3.20;88.30
76537;DHT22;65381;51.254;15.592;2023-02-02T00:31:21;3.20;88.20
76537;DHT22;65381;51.254;15.592;2023-02-02T00:33:49;3.20;88.20
76537;DHT22;65381;51.254;15.592;2023-02-02T00:36:19;3.20;88.20
76537;DHT22;65381;51.254;15.592;2023-02-02T00:38:48;3.20;88.20
76537;DHT22;65381;51.254;15.592;2023-02-02T00:41:17;3.30;88.20
76537;DHT22;65381;51.254;15.592;2023-02-02T00:43:45;3.30;88.20
76537;DHT22;65381;51.254;15.592;2023-02-02T00:46:33;3.30;88.20
76537;DHT22;65381;51.254;15.592;2023-02-02T00:49:00;3.30;88.10
76537;DHT22;65381;51.254;15.592;2023-02-02T00:51:28;3.30;88.10
76537;DHT22;65381;51.254;15.592;2023-02-02T00:53:57;3.30;88.00
76537;DHT22;65381;51.254;15.592;2023-02-02T00:56:25;3.30;88.00
76537;DHT22;65381;51.254;15.592;2023-02-02T00:58:52;3.30;88.00
76537;DHT22;65381;51.254;15.592;2023-02-02T01:01:21;3.40;88.00
76537;DHT22;65381;51.254;15.592;2023-02-02T01:03:49;3.50;87.90
76537;DHT22;65381;51.254;15.592;2023-02-02T01:06:17;3.40;87.90
76537;DHT22;65381;51.254;15.592;2023-02-02T01:08:45;3.50;87.80
76537;DHT22;65381;51.254;15.592;2023-02-02T01:11:15;3.50;87.80
76537;DHT22;65381;51.254;15.592;2023-02-02T01:13:43;3.50;87.70
76537;DHT22;65381;51.254;15.592;2023-02-02T01:16:11;3.50;87.70
76537;DHT22;65381;51.254;15.592;2023-02-02T01:18:39;3.50;87.60
76537;DHT22;65381;51.254;15.592;2023-02-02T01:21:09;3.50;87.50
76537;DHT22;65381;51.254;15.592;2023-02-02T01:23:38;3.50;87.50
76537;DHT22;65381;51.254;15.592;2023-02-02T01:26:08;3.50;87.50
76537;DHT22;65381;51.254;15.592;2023-02-02T01:28:37;3.60;87.40
76537;DHT22;65381;51.254;15.592;2023-02-02T01:31:11;3.50;87.40
76537;DHT22;65381;51.254;15.592;2023-02-02T01:33:39;3.60;87.30
76537;DHT22;65381;51.254;15.592;2023-02-02T01:36:11;3.60;87.20
76537;DHT22;65381;51.254;15.592;2023-02-02T01:38:39;3.60;87.20
76537;DHT22;65381;51.254;15.592;2023-02-02T01:41:12;3.60;87.20
76537;DHT22;65381;51.254;15.592;2023-02-02T01:46:13;3.60;87.10
76537;DHT22;65381;51.254;15.592;2023-02-02T01:48:45;3.60;87.10
76537;DHT22;65381;51.254;15.592;2023-02-02T01:51:17;3.60;87.00
76537;DHT22;65381;51.254;15.592;2023-02-02T01:53:47;3.70;87.00
76537;DHT22;65381;51.254;15.592;2023-02-02T01:56:25;3.70;87.00
76537;DHT22;65381;51.254;15.592;2023-02-02T01:58:54;3.70;86.80
76537;DHT22;65381;51.254;15.592;2023-02-02T02:01:23;3.70;86.80
76537;DHT22;65381;51.254;15.592;2023-02-02T02:03:52;3.70;86.60
76537;DHT22;65381;51.254;15.592;2023-02-02T02:06:21;3.70;86.50
76537;DHT22;65381;51.254;15.592;2023-02-02T02:09:00;3.70;86.50
76537;DHT22;65381;51.254;15.592;2023-02-02T02:11:32;3.70;86.40
76537;DHT22;65381;51.254;15.592;2023-02-02T02:14:05;3.70;86.50
76537;DHT22;65381;51.254;15.592;2023-02-02T02:31:51;3.60;86.20
76537;DHT22;65381;51.254;15.592;2023-02-02T02:40:36;3.70;86.00
76537;DHT22;65381;51.254;15.592;2023-02-02T02:43:11;3.70;86.00
76537;DHT22;65381;51.254;15.592;2023-02-02T02:45:40;3.80;86.10
76537;DHT22;65381;51.254;15.592;2023-02-02T02:48:08;3.80;85.90
76537;DHT22;65381;51.254;15.592;2023-02-02T02:50:37;3.80;85.90
76537;DHT22;65381;51.254;15.592;2023-02-02T02:53:21;3.80;85.80
76537;DHT22;65381;51.254;15.592;2023-02-02T02:56:19;3.90;85.90
76537;DHT22;65381;51.254;15.592;2023-02-02T02:58:57;3.90;85.80
76537;DHT22;65381;51.254;15.592;2023-02-02T03:01:35;3.90;85.70
76537;DHT22;65381;51.254;15.592;2023-02-02T03:04:21;3.90;85.50
76537;DHT22;65381;51.254;15.592;2023-02-02T03:06:59;3.90;85.50
76537;DHT22;65381;51.254;15.592;2023-02-02T03:09:32;3.90;85.50
76537;DHT22;65381;51.254;15.592;2023-02-02T03:12:02;3.90;85.50
76537;DHT22;65381;51.254;15.592;2023-02-02T03:14:34;3.90;85.40
76537;DHT22;65381;51.254;15.592;2023-02-02T03:17:02;3.90;85.30
76537;DHT22;65381;51.254;15.592;2023-02-02T03:19:30;3.80;85.20
76537;DHT22;65381;51.254;15.592;2023-02-02T03:21:58;3.80;85.20
76537;DHT22;65381;51.254;15.592;2023-02-02T03:24:26;3.80;85.20
76537;DHT22;65381;51.254;15.592;2023-02-02T03:26:54;3.80;85.10
76537;DHT22;65381;51.254;15.592;2023-02-02T03:29:21;3.80;85.10
76537;DHT22;65381;51.254;15.592;2023-02-02T03:31:50;3.80;85.00
76537;DHT22;65381;51.254;15.592;2023-02-02T03:34:17;3.80;84.90
76537;DHT22;65381;51.254;15.592;2023-02-02T03:36:45;3.90;84.70
76537;DHT22;65381;51.254;15.592;2023-02-02T03:39:13;3.90;84.80
76537;DHT22;65381;51.254;15.592;2023-02-02T03:41:41;3.90;84.80
76537;DHT22;65381;51.254;15.592;2023-02-02T03:44:08;3.90;84.70
76537;DHT22;65381;51.254;15.592;2023-02-02T03:46:36;4.00;84.50
76537;DHT22;65381;51.254;15.592;2023-02-02T03:49:04;4.00;84.50
76537;DHT22;65381;51.254;15.592;2023-02-02T03:51:32;4.00;84.30
76537;DHT22;65381;51.254;15.592;2023-02-02T03:54:00;4.00;84.40
76537;DHT22;65381;51.254;15.592;2023-02-02T03:56:28;4.10;84.20
76537;DHT22;65381;51.254;15.592;2023-02-02T03:58:56;4.10;84.10
76537;DHT22;65381;51.254;15.592;2023-02-02T04:01:27;4.10;84.10
76537;DHT22;65381;51.254;15.592;2023-02-02T04:03:56;4.10;84.10
76537;DHT22;65381;51.254;15.592;2023-02-02T04:06:25;4.20;83.90
76537;DHT22;65381;51.254;15.592;2023-02-02T04:08:53;4.20;83.80
76537;DHT22;65381;51.254;15.592;2023-02-02T04:11:21;4.20;83.90
76537;DHT22;65381;51.254;15.592;2023-02-02T04:13:48;4.20;83.70
76537;DHT22;65381;51.254;15.592;2023-02-02T04:16:16;4.20;83.60
76537;DHT22;65381;51.254;15.592;2023-02-02T04:18:44;4.20;83.70
76537;DHT22;65381;51.254;15.592;2023-02-02T04:21:12;4.20;83.70
76537;DHT22;65381;51.254;15.592;2023-02-02T04:23:40;4.20;83.60
76537;DHT22;65381;51.254;15.592;2023-02-02T04:26:08;4.20;83.60
76537;DHT22;65381;51.254;15.592;2023-02-02T04:28:36;4.20;83.60
76537;DHT22;65381;51.254;15.592;2023-02-02T04:31:04;4.20;83.40
76537;DHT22;65381;51.254;15.592;2023-02-02T04:33:33;4.20;83.40
76537;DHT22;65381;51.254;15.592;2023-02-02T04:36:07;4.20;83.20
76537;DHT22;65381;51.254;15.592;2023-02-02T04:38:35;4.20;83.10
76537;DHT22;65381;51.254;15.592;2023-02-02T04:41:08;4.20;83.00
76537;DHT22;65381;51.254;15.592;2023-02-02T04:43:37;4.20;83.00
76537;DHT22;65381;51.254;15.592;2023-02-02T04:46:06;4.20;82.90
76537;DHT22;65381;51.254;15.592;2023-02-02T04:48:34;4.20;82.70
76537;DHT22;65381;51.254;15.592;2023-02-02T04:51:05;4.20;82.70
76537;DHT22;65381;51.254;15.592;2023-02-02T04:53:33;4.20;82.80
76537;DHT22;65381;51.254;15.592;2023-02-02T04:56:06;4.10;82.60
76537;DHT22;65381;51.254;15.592;2023-02-02T04:58:34;4.10;82.70
76537;DHT22;65381;51.254;15.592;2023-02-02T05:01:17;4.10;82.80
76537;DHT22;65381;51.254;15.592;2023-02-02T05:03:46;4.10;82.70
76537;DHT22;65381;51.254;15.592;2023-02-02T05:06:15;4.10;82.90
76537;DHT22;65381;51.254;15.592;2023-02-02T05:08:43;4.00;82.90
76537;DHT22;65381;51.254;15.592;2023-02-02T05:11:13;4.00;82.80
76537;DHT22;65381;51.254;15.592;2023-02-02T05:13:46;4.00;83.00
76537;DHT22;65381;51.254;15.592;2023-02-02T05:16:14;4.00;83.00
76537;DHT22;65381;51.254;15.592;2023-02-02T05:18:42;4.00;82.90
76537;DHT22;65381;51.254;15.592;2023-02-02T05:21:15;4.00;83.00
76537;DHT22;65381;51.254;15.592;2023-02-02T05:23:42;4.00;83.00
76537;DHT22;65381;51.254;15.592;2023-02-02T05:26:17;4.00;83.10
76537;DHT22;65381;51.254;15.592;2023-02-02T05:28:46;4.00;83.20
76537;DHT22;65381;51.254;15.592;2023-02-02T05:31:15;3.90;83.30
76537;DHT22;65381;51.254;15.592;2023-02-02T05:33:43;3.90;83.20
76537;DHT22;65381;51.254;15.592;2023-02-02T05:36:11;3.90;83.30
76537;DHT22;65381;51.254;15.592;2023-02-02T05:38:39;3.90;83.30
76537;DHT22;65381;51.254;15.592;2023-02-02T05:41:07;3.90;83.20
76537;DHT22;65381;51.254;15.592;2023-02-02T05:43:35;3.90;83.10
76537;DHT22;65381;51.254;15.592;2023-02-02T05:46:03;3.90;83.20
76537;DHT22;65381;51.254;15.592;2023-02-02T05:48:31;3.90;83.40
76537;DHT22;65381;51.254;15.592;2023-02-02T05:51:08;3.80;83.50
76537;DHT22;65381;51.254;15.592;2023-02-02T05:53:37;3.80;83.50
76537;DHT22;65381;51.254;15.592;2023-02-02T05:56:06;3.90;83.60
76537;DHT22;65381;51.254;15.592;2023-02-02T05:58:33;3.90;83.60
76537;DHT22;65381;51.254;15.592;2023-02-02T06:01:01;3.90;83.50
76537;DHT22;65381;51.254;15.592;2023-02-02T06:03:29;3.90;83.50
76537;DHT22;65381;51.254;15.592;2023-02-02T06:05:58;3.90;83.60
76537;DHT22;65381;51.254;15.592;2023-02-02T06:08:26;3.90;83.70
76537;DHT22;65381;51.254;15.592;2023-02-02T06:10:54;3.90;83.70
76537;DHT22;65381;51.254;15.592;2023-02-02T06:13:23;3.90;83.80
76537;DHT22;65381;51.254;15.592;2023-02-02T06:15:51;3.80;83.80
76537;DHT22;65381;51.254;15.592;2023-02-02T06:18:19;3.90;83.90
76537;DHT22;65381;51.254;15.592;2023-02-02T06:20:47;3.90;84.00
76537;DHT22;65381;51.254;15.592;2023-02-02T06:23:15;3.90;84.10
76537;DHT22;65381;51.254;15.592;2023-02-02T06:25:43;3.90;84.10
76537;DHT22;65381;51.254;15.592;2023-02-02T06:28:10;3.90;84.20
76537;DHT22;65381;51.254;15.592;2023-02-02T06:30:38;3.90;84.20
76537;DHT22;65381;51.254;15.592;2023-02-02T06:33:09;3.80;84.20
76537;DHT22;65381;51.254;15.592;2023-02-02T06:35:37;3.70;84.20
76537;DHT22;65381;51.254;15.592;2023-02-02T06:38:05;3.70;84.20
76537;DHT22;65381;51.254;15.592;2023-02-02T06:40:33;3.60;84.40
76537;DHT22;65381;51.254;15.592;2023-02-02T06:43:02;3.50;84.60
76537;DHT22;65381;51.254;15.592;2023-02-02T06:45:30;3.50;84.70
76537;DHT22;65381;51.254;15.592;2023-02-02T06:47:59;3.50;84.80
76537;DHT22;65381;51.254;15.592;2023-02-02T06:50:30;3.50;85.00
76537;DHT22;65381;51.254;15.592;2023-02-02T06:52:58;3.50;85.20
76537;DHT22;65381;51.254;15.592;2023-02-02T06:55:26;3.50;85.20
76537;DHT22;65381;51.254;15.592;2023-02-02T06:57:57;3.60;85.20
76537;DHT22;65381;51.254;15.592;2023-02-02T07:00:28;3.60;85.30
76537;DHT22;65381;51.254;15.592;2023-02-02T07:02:56;3.70;85.20
76537;DHT22;65381;51.254;15.592;2023-02-02T07:05:26;3.70;85.20
76537;DHT22;65381;51.254;15.592;2023-02-02T07:07:57;3.70;85.20
76537;DHT22;65381;51.254;15.592;2023-02-02T07:10:25;3.80;85.20
76537;DHT22;65381;51.254;15.592;2023-02-02T07:13:12;3.80;85.20
76537;DHT22;65381;51.254;15.592;2023-02-02T07:15:40;3.90;85.10
76537;DHT22;65381;51.254;15.592;2023-02-02T07:18:08;3.90;85.20
76537;DHT22;65381;51.254;15.592;2023-02-02T07:20:36;3.90;85.20
76537;DHT22;65381;51.254;15.592;2023-02-02T07:23:04;3.90;85.10
76537;DHT22;65381;51.254;15.592;2023-02-02T07:25:32;3.90;85.10
76537;DHT22;65381;51.254;15.592;2023-02-02T07:28:00;3.90;85.20
76537;DHT22;65381;51.254;15.592;2023-02-02T07:30:28;3.90;85.20
76537;DHT22;65381;51.254;15.592;2023-02-02T07:32:56;4.00;85.20
76537;DHT22;65381;51.254;15.592;2023-02-02T07:35:24;4.00;85.10
76537;DHT22;65381;51.254;15.592;2023-02-02T07:37:55;4.00;85.00
76537;DHT22;65381;51.254;15.592;2023-02-02T07:40:24;4.00;85.00
76537;DHT22;65381;51.254;15.592;2023-02-02T07:42:51;4.00;85.00
76537;DHT22;65381;51.254;15.592;2023-02-02T07:45:19;4.00;85.00
76537;DHT22;65381;51.254;15.592;2023-02-02T07:48:02;4.10;85.20
76537;DHT22;65381;51.254;15.592;2023-02-02T07:50:30;4.20;85.10
76537;DHT22;65381;51.254;15.592;2023-02-02T07:52:58;4.20;85.00
76537;DHT22;65381;51.254;15.592;2023-02-02T07:55:27;4.30;85.10
76537;DHT22;65381;51.254;15.592;2023-02-02T07:57:55;4.30;85.00
76537;DHT22;65381;51.254;15.592;2023-02-02T08:00:26;4.30;85.10
76537;DHT22;65381;51.254;15.592;2023-02-02T08:02:53;4.40;85.00
76537;DHT22;65381;51.254;15.592;2023-02-02T08:05:22;4.40;84.80
76537;DHT22;65381;51.254;15.592;2023-02-02T08:07:50;4.50;85.00
76537;DHT22;65381;51.254;15.592;2023-02-02T08:10:18;4.50;84.80
76537;DHT22;65381;51.254;15.592;2023-02-02T08:12:46;4.60;84.60
76537;DHT22;65381;51.254;15.592;2023-02-02T08:15:14;4.50;84.40
76537;DHT22;65381;51.254;15.592;2023-02-02T08:17:45;4.60;84.50
76537;DHT22;65381;51.254;15.592;2023-02-02T08:20:13;4.50;84.40
76537;DHT22;65381;51.254;15.592;2023-02-02T08:22:41;4.50;84.40
76537;DHT22;65381;51.254;15.592;2023-02-02T08:25:09;4.50;84.30
76537;DHT22;65381;51.254;15.592;2023-02-02T08:27:37;4.60;84.50
76537;DHT22;65381;51.254;15.592;2023-02-02T08:30:05;4.70;84.40
76537;DHT22;65381;51.254;15.592;2023-02-02T08:32:33;4.70;84.50
76537;DHT22;65381;51.254;15.592;2023-02-02T08:35:01;4.70;84.50
76537;DHT22;65381;51.254;15.592;2023-02-02T08:37:29;4.70;84.40
76537;DHT22;65381;51.254;15.592;2023-02-02T08:39:58;4.90;84.70
76537;DHT22;65381;51.254;15.592;2023-02-02T08:42:25;5.00;84.70
76537;DHT22;65381;51.254;15.592;2023-02-02T08:44:53;5.20;84.30
76537;DHT22;65381;51.254;15.592;2023-02-02T08:47:41;5.30;84.00
76537;DHT22;65381;51.254;15.592;2023-02-02T08:50:10;5.30;84.10
76537;DHT22;65381;51.254;15.592;2023-02-02T08:52:37;5.50;84.00
76537;DHT22;65381;51.254;15.592;2023-02-02T08:55:05;5.50;83.70
76537;DHT22;65381;51.254;15.592;2023-02-02T08:57:33;5.70;84.40
76537;DHT22;65381;51.254;15.592;2023-02-02T09:00:03;6.00;83.90
76537;DHT22;65381;51.254;15.592;2023-02-02T09:02:31;6.00;83.30
76537;DHT22;65381;51.254;15.592;2023-02-02T09:04:59;6.00;83.00
76537;DHT22;65381;51.254;15.592;2023-02-02T09:07:27;5.90;83.00
76537;DHT22;65381;51.254;15.592;2023-02-02T09:09:55;5.90;83.00
76537;DHT22;65381;51.254;15.592;2023-02-02T09:12:24;5.80;82.60
76537;DHT22;65381;51.254;15.592;2023-02-02T09:14:52;5.60;82.60
76537;DHT22;65381;51.254;15.592;2023-02-02T09:17:20;5.50;82.80
76537;DHT22;65381;51.254;15.592;2023-02-02T09:19:49;5.50;82.80
76537;DHT22;65381;51.254;15.592;2023-02-02T09:22:17;5.40;82.90
76537;DHT22;65381;51.254;15.592;2023-02-02T09:24:45;5.30;82.80
76537;DHT22;65381;51.254;15.592;2023-02-02T09:27:13;5.30;82.90
76537;DHT22;65381;51.254;15.592;2023-02-02T09:29:41;5.30;83.00
76537;DHT22;65381;51.254;15.592;2023-02-02T09:32:08;5.30;83.20
76537;DHT22;65381;51.254;15.592;2023-02-02T09:34:37;5.40;83.20
76537;DHT22;65381;51.254;15.592;2023-02-02T09:37:06;5.40;83.00
76537;DHT22;65381;51.254;15.592;2023-02-02T09:39:34;5.40;83.00
76537;DHT22;65381;51.254;15.592;2023-02-02T09:42:33;5.30;83.00
76537;DHT22;65381;51.254;15.592;2023-02-02T09:45:30;5.40;83.20
76537;DHT22;65381;51.254;15.592;2023-02-02T09:48:11;5.40;83.00
76537;DHT22;65381;51.254;15.592;2023-02-02T09:50:50;5.40;83.00
76537;DHT22;65381;51.254;15.592;2023-02-02T09:56:35;5.30;83.20
76537;DHT22;65381;51.254;15.592;2023-02-02T09:59:09;5.40;83.20
76537;DHT22;65381;51.254;15.592;2023-02-02T10:01:52;5.50;83.10
76537;DHT22;65381;51.254;15.592;2023-02-02T10:04:37;5.50;83.00
76537;DHT22;65381;51.254;15.592;2023-02-02T10:07:14;5.50;83.00
76537;DHT22;65381;51.254;15.592;2023-02-02T10:10:08;5.50;82.80
76537;DHT22;65381;51.254;15.592;2023-02-02T10:12:43;5.50;82.50
76537;DHT22;65381;51.254;15.592;2023-02-02T10:18:49;5.30;82.30
76537;DHT22;65381;51.254;15.592;2023-02-02T10:21:17;5.40;82.50
76537;DHT22;65381;51.254;15.592;2023-02-02T10:23:47;5.50;82.60
76537;DHT22;65381;51.254;15.592;2023-02-02T10:27:10;5.50;82.80
76537;DHT22;65381;51.254;15.592;2023-02-02T10:32:27;5.70;82.00
76537;DHT22;65381;51.254;15.592;2023-02-02T10:37:55;6.00;82.40
76537;DHT22;65381;51.254;15.592;2023-02-02T10:46:23;8.80;82.30
76537;DHT22;65381;51.254;15.592;2023-02-02T10:49:45;8.70;79.60
76537;DHT22;65381;51.254;15.592;2023-02-02T10:51:55;8.20;79.50
76537;DHT22;65381;51.254;15.592;2023-02-02T11:00:45;7.30;79.90
76537;DHT22;65381;51.254;15.592;2023-02-02T11:03:17;7.00;80.10
76537;DHT22;65381;51.254;15.592;2023-02-02T11:05:46;6.80;80.40
76537;DHT22;65381;51.254;15.592;2023-02-02T11:08:42;6.70;80.70
76537;DHT22;65381;51.254;15.592;2023-02-02T11:13:58;7.60;82.50
76537;DHT22;65381;51.254;15.592;2023-02-02T11:16:30;8.20;82.10
76537;DHT22;65381;51.254;15.592;2023-02-02T11:21:51;8.50;80.00
76537;DHT22;65381;51.254;15.592;2023-02-02T11:24:46;8.40;80.10
76537;DHT22;65381;51.254;15.592;2023-02-02T11:27:25;8.20;79.70
76537;DHT22;65381;51.254;15.592;2023-02-02T11:29:56;8.00;79.70
76537;DHT22;65381;51.254;15.592;2023-02-02T11:32:29;7.80;80.20
76537;DHT22;65381;51.254;15.592;2023-02-02T11:35:12;7.60;80.10
76537;DHT22;65381;51.254;15.592;2023-02-02T11:40:44;7.20;80.10
76537;DHT22;65381;51.254;15.592;2023-02-02T11:43:33;7.10;80.10
76537;DHT22;65381;51.254;15.592;2023-02-02T11:46:24;7.00;80.00
76537;DHT22;65381;51.254;15.592;2023-02-02T11:49:00;6.80;79.80
76537;DHT22;65381;51.254;15.592;2023-02-02T11:51:29;6.70;80.20
76537;DHT22;65381;51.254;15.592;2023-02-02T11:54:04;6.70;80.50
76537;DHT22;65381;51.254;15.592;2023-02-02T11:56:36;6.70;80.30
76537;DHT22;65381;51.254;15.592;2023-02-02T11:59:05;6.70;80.50
76537;DHT22;65381;51.254;15.592;2023-02-02T12:01:35;6.70;80.70
76537;DHT22;65381;51.254;15.592;2023-02-02T12:04:24;6.80;80.20
76537;DHT22;65381;51.254;15.592;2023-02-02T12:06:53;6.70;80.10
76537;DHT22;65381;51.254;15.592;2023-02-02T12:09:22;6.80;79.90
76537;DHT22;65381;51.254;15.592;2023-02-02T12:17:41;6.30;79.20
76537;DHT22;65381;51.254;15.592;2023-02-02T12:25:59;5.90;79.50
76537;DHT22;65381;51.254;15.592;2023-02-02T12:28:56;5.90;79.70
76537;DHT22;65381;51.254;15.592;2023-02-02T12:34:47;5.90;79.90
76537;DHT22;65381;51.254;15.592;2023-02-02T12:40:32;5.90;79.40
76537;DHT22;65381;51.254;15.592;2023-02-02T12:46:24;5.70;79.70
76537;DHT22;65381;51.254;15.592;2023-02-02T12:49:25;5.70;79.70
76537;DHT22;65381;51.254;15.592;2023-02-02T12:52:08;5.50;79.00
76537;DHT22;65381;51.254;15.592;2023-02-02T12:57:33;4.80;79.70
76537;DHT22;65381;51.254;15.592;2023-02-02T13:00:15;4.80;80.00
76537;DHT22;65381;51.254;15.592;2023-02-02T13:05:52;4.50;80.00
76537;DHT22;65381;51.254;15.592;2023-02-02T13:08:52;4.50;80.90
76537;DHT22;65381;51.254;15.592;2023-02-02T13:14:19;6.10;80.90
76537;DHT22;65381;51.254;15.592;2023-02-02T13:16:50;6.00;80.10
76537;DHT22;65381;51.254;15.592;2023-02-02T13:19:35;6.00;80.20
76537;DHT22;65381;51.254;15.592;2023-02-02T13:22:07;5.90;80.30
76537;DHT22;65381;51.254;15.592;2023-02-02T13:24:39;6.00;80.50
76537;DHT22;65381;51.254;15.592;2023-02-02T13:27:13;6.10;81.30
76537;DHT22;65381;51.254;15.592;2023-02-02T13:29:50;6.40;81.30
76537;DHT22;65381;51.254;15.592;2023-02-02T13:32:37;6.50;81.00
76537;DHT22;65381;51.254;15.592;2023-02-02T13:35:26;6.50;81.10
76537;DHT22;65381;51.254;15.592;2023-02-02T13:40:41;6.90;81.30
76537;DHT22;65381;51.254;15.592;2023-02-02T13:59:53;4.40;79.30
76537;DHT22;65381;51.254;15.592;2023-02-02T14:05:07;3.60;80.90
76537;DHT22;65381;51.254;15.592;2023-02-02T14:07:47;3.50;82.00
76537;DHT22;65381;51.254;15.592;2023-02-02T14:10:37;3.70;82.60
76537;DHT22;65381;51.254;15.592;2023-02-02T14:16:01;4.50;83.60
76537;DHT22;65381;51.254;15.592;2023-02-02T14:34:43;4.70;80.60
76537;DHT22;65381;51.254;15.592;2023-02-02T14:40:01;4.50;80.80
76537;DHT22;65381;51.254;15.592;2023-02-02T14:45:46;4.20;81.20
76537;DHT22;65381;51.254;15.592;2023-02-02T14:48:19;4.10;81.30
76537;DHT22;65381;51.254;15.592;2023-02-02T14:50:51;4.00;81.40
76537;DHT22;65381;51.254;15.592;2023-02-02T14:53:37;3.90;81.30
76537;DHT22;65381;51.254;15.592;2023-02-02T14:56:10;3.80;81.50
76537;DHT22;65381;51.254;15.592;2023-02-02T14:58:43;3.70;81.50
76537;DHT22;65381;51.254;15.592;2023-02-02T15:03:56;3.50;81.60
76537;DHT22;65381;51.254;15.592;2023-02-02T15:06:43;3.50;81.90
76537;DHT22;65381;51.254;15.592;2023-02-02T15:15:14;3.60;82.00
76537;DHT22;65381;51.254;15.592;2023-02-02T15:18:04;3.50;81.90
76537;DHT22;65381;51.254;15.592;2023-02-02T15:20:55;3.50;81.70
76537;DHT22;65381;51.254;15.592;2023-02-02T15:23:41;3.30;81.70
76537;DHT22;65381;51.254;15.592;2023-02-02T15:26:26;3.30;81.70
76537;DHT22;65381;51.254;15.592;2023-02-02T15:29:38;3.10;81.50
76537;DHT22;65381;51.254;15.592;2023-02-02T15:31:48;3.00;81.50
76537;DHT22;65381;51.254;15.592;2023-02-02T15:37:14;2.70;81.60
76537;DHT22;65381;51.254;15.592;2023-02-02T15:39:50;2.50;81.60
76537;DHT22;65381;51.254;15.592;2023-02-02T15:42:21;2.40;81.90
76537;DHT22;65381;51.254;15.592;2023-02-02T15:45:46;2.40;82.10
76537;DHT22;65381;51.254;15.592;2023-02-02T15:48:28;2.50;82.20
76537;DHT22;65381;51.254;15.592;2023-02-02T15:51:14;2.50;82.20
76537;DHT22;65381;51.254;15.592;2023-02-02T15:56:37;2.50;82.10
76537;DHT22;65381;51.254;15.592;2023-02-02T15:59:21;2.50;82.20
76537;DHT22;65381;51.254;15.592;2023-02-02T16:02:25;2.60;82.10
76537;DHT22;65381;51.254;15.592;2023-02-02T16:04:54;2.50;82.00
76537;DHT22;65381;51.254;15.592;2023-02-02T16:07:31;2.50;82.00
76537;DHT22;65381;51.254;15.592;2023-02-02T16:10:05;2.50;81.90
76537;DHT22;65381;51.254;15.592;2023-02-02T16:12:33;2.40;81.90
76537;DHT22;65381;51.254;15.592;2023-02-02T16:15:01;2.30;81.90
76537;DHT22;65381;51.254;15.592;2023-02-02T16:17:31;2.20;82.00
76537;DHT22;65381;51.254;15.592;2023-02-02T16:20:08;2.20;82.00
76537;DHT22;65381;51.254;15.592;2023-02-02T16:22:39;2.10;82.30
76537;DHT22;65381;51.254;15.592;2023-02-02T16:25:09;2.20;82.40
76537;DHT22;65381;51.254;15.592;2023-02-02T16:27:42;2.20;82.30
76537;DHT22;65381;51.254;15.592;2023-02-02T16:30:30;2.20;82.30
76537;DHT22;65381;51.254;15.592;2023-02-02T16:35:53;2.10;82.00
76537;DHT22;65381;51.254;15.592;2023-02-02T16:38:30;2.00;81.90
76537;DHT22;65381;51.254;15.592;2023-02-02T16:41:06;1.80;81.90
76537;DHT22;65381;51.254;15.592;2023-02-02T16:43:37;1.70;82.00
76537;DHT22;65381;51.254;15.592;2023-02-02T16:46:13;1.60;82.10
76537;DHT22;65381;51.254;15.592;2023-02-02T16:49:05;1.50;82.10
76537;DHT22;65381;51.254;15.592;2023-02-02T16:51:32;1.40;82.40
76537;DHT22;65381;51.254;15.592;2023-02-02T16:54:12;1.40;82.20
76537;DHT22;65381;51.254;15.592;2023-02-02T16:56:47;1.40;82.40
76537;DHT22;65381;51.254;15.592;2023-02-02T16:59:35;1.40;82.40
76537;DHT22;65381;51.254;15.592;2023-02-02T17:04:57;1.40;82.40
76537;DHT22;65381;51.254;15.592;2023-02-02T17:07:29;1.40;82.40
76537;DHT22;65381;51.254;15.592;2023-02-02T17:12:44;1.40;82.40
76537;DHT22;65381;51.254;15.592;2023-02-02T17:17:46;1.30;82.40
76537;DHT22;65381;51.254;15.592;2023-02-02T17:20:18;1.40;82.60
76537;DHT22;65381;51.254;15.592;2023-02-02T17:22:52;1.40;82.60
76537;DHT22;65381;51.254;15.592;2023-02-02T17:25:39;1.40;82.60
76537;DHT22;65381;51.254;15.592;2023-02-02T17:28:19;1.40;82.60
76537;DHT22;65381;51.254;15.592;2023-02-02T17:31:09;1.50;82.70
76537;DHT22;65381;51.254;15.592;2023-02-02T17:33:37;1.60;82.70
76537;DHT22;65381;51.254;15.592;2023-02-02T17:36:06;1.60;82.60
76537;DHT22;65381;51.254;15.592;2023-02-02T17:38:34;1.70;82.60
76537;DHT22;65381;51.254;15.592;2023-02-02T17:41:03;1.70;82.50
76537;DHT22;65381;51.254;15.592;2023-02-02T17:43:32;1.70;82.40
76537;DHT22;65381;51.254;15.592;2023-02-02T17:46:02;1.70;82.30
76537;DHT22;65381;51.254;15.592;2023-02-02T17:48:32;1.60;82.20
76537;DHT22;65381;51.254;15.592;2023-02-02T17:51:01;1.50;82.10
76537;DHT22;65381;51.254;15.592;2023-02-02T17:53:33;1.40;82.10
76537;DHT22;65381;51.254;15.592;2023-02-02T17:56:01;1.20;82.20
76537;DHT22;65381;51.254;15.592;2023-02-02T17:58:29;1.10;82.10
76537;DHT22;65381;51.254;15.592;2023-02-02T18:00:58;1.00;81.90
76537;DHT22;65381;51.254;15.592;2023-02-02T18:03:33;0.90;82.00
76537;DHT22;65381;51.254;15.592;2023-02-02T18:06:05;0.80;82.10
76537;DHT22;65381;51.254;15.592;2023-02-02T18:08:33;0.60;82.00
76537;DHT22;65381;51.254;15.592;2023-02-02T18:11:03;0.50;82.00
76537;DHT22;65381;51.254;15.592;2023-02-02T18:13:32;0.40;82.20
76537;DHT22;65381;51.254;15.592;2023-02-02T18:16:00;0.30;82.40
76537;DHT22;65381;51.254;15.592;2023-02-02T18:18:28;0.20;82.40
76537;DHT22;65381;51.254;15.592;2023-02-02T18:20:57;0.00;82.60
76537;DHT22;65381;51.254;15.592;2023-02-02T18:23:25;0.00;82.70
76537;DHT22;65381;51.254;15.592;2023-02-02T18:25:54;0.00;82.70
76537;DHT22;65381;51.254;15.592;2023-02-02T18:28:22;0.00;82.70
76537;DHT22;65381;51.254;15.592;2023-02-02T18:30:52;0.00;82.70
76537;DHT22;65381;51.254;15.592;2023-02-02T18:33:22;-0.10;82.50
76537;DHT22;65381;51.254;15.592;2023-02-02T18:35:52;-0.10;82.40
76537;DHT22;65381;51.254;15.592;2023-02-02T18:38:19;-0.10;82.60
76537;DHT22;65381;51.254;15.592;2023-02-02T18:40:57;-0.10;82.70
76537;DHT22;65381;51.254;15.592;2023-02-02T18:43:26;-0.20;82.70
76537;DHT22;65381;51.254;15.592;2023-02-02T18:46:00;-0.20;82.70